SBES

Details ICAO SBES
Name SAO PEDRO DA ALDEIA
Region Brazil
Timezone America/Sao_Paulo (UTC-3.0)
Plans Departing 5
Arriving 8
Stats Elevation 61 ft / 19 m (AMSL)
Location -22.812873° -42.092633°
Runways 1
Magnetic Variation 23.183° W
Sunrise 2018-05-27 09:20:49 UTC / 2018-05-27 06:20:49 Local
Sunset 2018-05-27 20:13:09 UTC / 2018-05-27 17:13:09 Local
Advertisement - Login to hide

Runways

ID Width Length Bearing (true) Bearing (mag) Surface Threshold Offset Overrun Length
07 92 ft / 28 m 7,867 ft / 2,398 m 43.80° 66.98° Concrete 0 ft / 0 m 330 ft / 101 m
25 92 ft / 28 m 7,867 ft / 2,398 m 223.80° 246.98° Concrete 0 ft / 0 m 330 ft / 101 m

Map

Weather


0- 5 10 15 20 25 30 35+ Temperature / ° C

Clouds and Precipitation
Forecast for 2018-05-27 18:00 UTC. Updated 3 hours ago

Ground ~20,000 ft ~40,000 ft Winds

METAR

SBES 272000Z 12006KT CAVOK 23/16 Q1023

TAF

Not found

Frequencies

Ground 121.90 MHz GND
Tower 122.80 MHz ALDEIA TWR
Tower 118.30 MHz ALDEIA TWR
Approach 119.45 MHz ALDEIA APP
Warning: Do not use this data for real-world aviation or navigation. No guarantee of current accuracy is given.